WetterOnline ( https://www.wetteronline.de )

Wetter aktuell Dittelbrunn

Aktuelles Wetter: Bad Kissingen (266m)

6-stündlich | Neueste Meldungen
Ortszeit Temperatur Wetter
Mo, 06.12. 1:00 -0.2° C Nebel
So, 05.12. 19:00 2.1° C bedeckt
So, 05.12. 13:00 3.9° C bedeckt
So, 05.12. 7:00 2.5° C bewölkt
So, 05.12. 1:00 2.9° C wolkig
Sa, 04.12. 19:00 0.7° C Sprühregen
Sa, 04.12. 13:00 0.4° C Nebel
Sa, 04.12. 7:00 -0.1° C Schneefall
Ortszeit Temperatur Wetter
Mo, 06.12. 1:00 -0.2° C Nebel
Mo, 06.12. 0:50 -0.2° C Nebel
Mo, 06.12. 0:40 0.0° C Nebel
Mo, 06.12. 0:30 0.4° C Nebel
Mo, 06.12. 0:20 0.4° C bewölkt
Mo, 06.12. 0:10 0.5° C Dunst
Mo, 06.12. 0:00 0.2° C Nebel
So, 05.12. 23:30 0.8° C wolkenlos
So, 05.12. 23:00 1.2° C leicht bewölkt
So, 05.12. 22:30 1.4° C bedeckt
So, 05.12. 22:00 1.4° C bedeckt
Ortszeit Relative Feuchte Sichtweite
Mo, 06.12. 1:00 99% 100 m
So, 05.12. 19:00 92% 35 km
So, 05.12. 13:00 81% 65 km
So, 05.12. 7:00 89% 45 km
So, 05.12. 1:00 87% 55 km
Sa, 04.12. 19:00 99% 0.2 km
Sa, 04.12. 13:00 97% 0.2 km
Sa, 04.12. 7:00 98% 0.6 km
Ortszeit Relative Feuchte Sichtweite
Mo, 06.12. 1:00 99% 100 m
Mo, 06.12. 0:50 99% -
Mo, 06.12. 0:40 99% -
Mo, 06.12. 0:30 98% 8 km
Mo, 06.12. 0:20 98% -
Mo, 06.12. 0:10 98% -
Mo, 06.12. 0:00 98% 0.5 km
So, 05.12. 23:30 96% 19 km
So, 05.12. 23:00 94% 25 km
So, 05.12. 22:30 94% 35 km
So, 05.12. 22:00 94% 30 km
Ortszeit Niederschlagsmenge Niederschlagsart
Mo, 06.12. 1:00 0.0 l/m2 in 6 Std. -
So, 05.12. 19:00 0.0 l/m2 in 12 Std. -
So, 05.12. 13:00 0.0 l/m2 in 6 Std. -
So, 05.12. 7:00 0.1 l/m2 in 12 Std. Regen
So, 05.12. 1:00 0.1 l/m2 in 6 Std. Regen
Sa, 04.12. 19:00 5 l/m2 in 12 Std. Regen
Sa, 04.12. 13:00 0.7 l/m2 in 6 Std. Schnee, Sprühregen
Sa, 04.12. 7:00 3 l/m2 in 12 Std. Schnee, Regen
Ortszeit Niederschlagsmenge Niederschlagsart
Mo, 06.12. 1:00 0.0 l/m2 in 1 Std. -
Mo, 06.12. 0:50 keine Meldung -
Mo, 06.12. 0:40 keine Meldung -
Mo, 06.12. 0:30 0.0 l/m2 in 1 Std. -
Mo, 06.12. 0:20 keine Meldung -
Mo, 06.12. 0:10 keine Meldung -
Mo, 06.12. 0:00 0.0 l/m2 in 1 Std. -
So, 05.12. 23:30 0.0 l/m2 in 1 Std. -
So, 05.12. 23:00 0.0 l/m2 in 1 Std. -
So, 05.12. 22:30 0.0 l/m2 in 1 Std. -
So, 05.12. 22:00 0.0 l/m2 in 1 Std. -
Ortszeit Stärke Spitze Richtung
km/h Bft. km/h Grad Sektor
Mo, 06.12. 1:00 2 1 9 10° N
So, 05.12. 19:00 6 1 17 60° NO
So, 05.12. 13:00 7 2 22 210° SW
So, 05.12. 7:00 13 3 28 200° S
So, 05.12. 1:00 11 2 33 220° SW
Sa, 04.12. 19:00 4 1 14 320° NW
Sa, 04.12. 13:00 7 2 11 10° N
Sa, 04.12. 7:00 0 0 25 - -
Ortszeit Stärke Spitze Richtung
km/h Bft. km/h Grad Sektor
Mo, 06.12. 1:00 2 1 6 10° N
Mo, 06.12. 0:50 2 1 - 10° N
Mo, 06.12. 0:40 4 1 - 30° NO
Mo, 06.12. 0:30 4 1 7 60° NO
Mo, 06.12. 0:20 4 1 - 60° NO
Mo, 06.12. 0:10 4 1 - 40° NO
Mo, 06.12. 0:00 6 1 7 10° N
So, 05.12. 23:30 4 1 7 30° NO
So, 05.12. 23:00 4 1 7 60° NO
So, 05.12. 22:30 4 1 7 30° NO
So, 05.12. 22:00 7 2 7 30° NO
Ortszeit Untergrenze Bedeckung Gattung
total tief tief mittel hoch
Mo, 06.12. 1:00 <30 m 7/8 0/8 - - -
So, 05.12. 19:00 1500 m 8/8 8/8 - - -
So, 05.12. 13:00 450 m 8/8 8/8 - - -
So, 05.12. 7:00 540 m 7/8 7/8 - - -
So, 05.12. 1:00 840 m 8/8 1/8 - - -
Sa, 04.12. 19:00 60 m 8/8 8/8 - - -
Sa, 04.12. 13:00 <30 m 8/8 0/8 - - -
Sa, 04.12. 7:00 30 m 7/8 7/8 - - -
Ortszeit Bedeckungsgrad in Achtel und Wolkenuntergrenze
Mo, 06.12. 1:00 6(<30m) 7(1500m)
Mo, 06.12. 0:50 6(<30m) 7(1500m)
Mo, 06.12. 0:40 4(<30m) 6(1500m)
Mo, 06.12. 0:30 7(1800m) 5(1500m)
Mo, 06.12. 0:20 7(1800m)
Mo, 06.12. 0:10 7(1800m)
Mo, 06.12. 0:00 1(<30m) 3(1800m)
So, 05.12. 23:30 keine Wolken
So, 05.12. 23:00 4(2100m)
So, 05.12. 22:30 8(2100m)
So, 05.12. 22:00 7(1500m) 8(1800m)
Ortszeit Luftdruck NN (hPa) Tendenz (hPa in 3 Std.)
Mo, 06.12. 1:00 1011 + 1,2
So, 05.12. 19:00 1008 + 1,7
So, 05.12. 13:00 1005 0,0
So, 05.12. 7:00 1004 + 0,6
So, 05.12. 1:00 1002 + 2,2
Sa, 04.12. 19:00 997 - 0,2
Sa, 04.12. 13:00 999 - 2,3
Sa, 04.12. 7:00 1003 - 2,0
Ortszeit Luftdruck NN (hPa) Tendenz (hPa in 3 Std.)
Mo, 06.12. 1:00 1011 + 1,2
Mo, 06.12. 0:50 1011 keine Meldung
Mo, 06.12. 0:40 1011 keine Meldung
Mo, 06.12. 0:30 1011 + 1,0
Mo, 06.12. 0:20 1011 keine Meldung
Mo, 06.12. 0:10 1011 keine Meldung
Mo, 06.12. 0:00 1011 + 1,3
So, 05.12. 23:30 1010 + 1,2
So, 05.12. 23:00 1010 + 1,0
So, 05.12. 22:30 1010 + 1,4
So, 05.12. 22:00 1010 + 1,6
Ortszeit Schneehöhe (cm)
Mo, 06.12. 1:00 0
So, 05.12. 19:00 0
So, 05.12. 13:00 0
So, 05.12. 7:00 0
So, 05.12. 1:00 0
Sa, 04.12. 19:00 0
Sa, 04.12. 13:00 -
Sa, 04.12. 7:00 2
Ortszeit Schneehöhe (cm)
Mo, 06.12. 1:00 0
Mo, 06.12. 0:50 0
Mo, 06.12. 0:40 0
Mo, 06.12. 0:30 0
Mo, 06.12. 0:20 0
Mo, 06.12. 0:10 0
Mo, 06.12. 0:00 0
So, 05.12. 23:30 0
So, 05.12. 23:00 0
So, 05.12. 22:30 0
So, 05.12. 22:00 0
Link zu dieser Seite / Seite empfehlen

Das Wetter in ...